Kezdőlap
METAR-TAF:

METAR-TAF

Repülőterek :

Bagdad, Irak

földrajzi szélesség: 33-15-45N, földrajzi hosszúság: 44-14-04E, magasság: 35 m

Jelenlegi meteorológiai megfigyelések

A jelentés 35 perccel ezelõtt készült, 18:00 UTC
Északkeleti szél 5 kt
Hőmérséklet 30°C
Páratartalom 27%
Légköri nyomás 1011 hPa
Látótávolság: 6000 m
Kevés felhő 3000 lábon

METAR: ORBI 171800Z 04005KT 6000 FEW030 30/09 Q1011 NOSIG

Idő: 21:35 (18:35 UTC)

Előrejelzés

A jelentés 2 órával és 35 perccel ezelõtt készült, 16:00 UTC
Az előrejelzés 17-én 18 óra UTC és 18-én 18 óra UTC között érvényes
Kelet-délkeleti szél 12 kt
Látótávolság: 6000 m

TAF: ORBI 171600Z 1718/1818 12012KT 6000 NSC

Meteorológiai megfigyelések és előrejelzések több, mint 4000 repülőtéren (METAR és TAF jelentéseket).

A térképen piros és sárga pontok jelzik az elérhető meteorológiai állomásokat.

Mozgassa az egeret a pont fölött, hogy megjelenjen az állomás neve.

Azután kattintson az időjárási megfigyelések és előrejelzések megtekintéséhez.

A térkép megváltoztatása: kattintson a fekete keresztel jelölt zöld gombra ráközelítéshez, a vonallal jelölt zöld gombra távolításhoz, vagy a zöld nyilakra a szomszédos térképek eléréséhez.


METAR-TAF: